sensor_id;sensor_type;location;lat;lon;timestamp;temperature;humidity
53282;DHT22;39167;52.794;6.892;2022-12-07T00:01:23;3.80;99.90
53282;DHT22;39167;52.794;6.892;2022-12-07T00:03:52;3.80;99.90
53282;DHT22;39167;52.794;6.892;2022-12-07T00:06:18;3.70;99.90
53282;DHT22;39167;52.794;6.892;2022-12-07T00:08:45;4.00;99.90
53282;DHT22;39167;52.794;6.892;2022-12-07T00:11:16;3.70;99.90
53282;DHT22;39167;52.794;6.892;2022-12-07T00:13:42;3.70;99.90
53282;DHT22;39167;52.794;6.892;2022-12-07T00:16:11;4.10;99.90
53282;DHT22;39167;52.794;6.892;2022-12-07T00:18:37;4.00;99.90
53282;DHT22;39167;52.794;6.892;2022-12-07T00:23:36;3.60;99.90
53282;DHT22;39167;52.794;6.892;2022-12-07T00:26:13;3.60;99.90
53282;DHT22;39167;52.794;6.892;2022-12-07T00:28:39;3.60;99.90
53282;DHT22;39167;52.794;6.892;2022-12-07T00:31:10;3.50;99.90
53282;DHT22;39167;52.794;6.892;2022-12-07T00:33:37;3.50;99.90
53282;DHT22;39167;52.794;6.892;2022-12-07T00:36:06;3.60;99.90
53282;DHT22;39167;52.794;6.892;2022-12-07T00:38:34;3.50;99.90
53282;DHT22;39167;52.794;6.892;2022-12-07T00:41:02;3.70;99.90
53282;DHT22;39167;52.794;6.892;2022-12-07T00:43:29;3.40;99.90
53282;DHT22;39167;52.794;6.892;2022-12-07T00:45:55;3.40;99.90
53282;DHT22;39167;52.794;6.892;2022-12-07T00:48:21;3.40;99.90
53282;DHT22;39167;52.794;6.892;2022-12-07T00:50:48;3.40;99.90
53282;DHT22;39167;52.794;6.892;2022-12-07T00:53:14;3.40;99.90
53282;DHT22;39167;52.794;6.892;2022-12-07T00:55:41;3.40;99.90
53282;DHT22;39167;52.794;6.892;2022-12-07T00:58:06;3.80;99.90
53282;DHT22;39167;52.794;6.892;2022-12-07T01:00:33;3.40;99.90
53282;DHT22;39167;52.794;6.892;2022-12-07T01:03:00;3.30;99.90
53282;DHT22;39167;52.794;6.892;2022-12-07T01:05:26;3.60;99.90
53282;DHT22;39167;52.794;6.892;2022-12-07T01:07:51;3.30;99.90
53282;DHT22;39167;52.794;6.892;2022-12-07T01:10:17;3.30;99.90
53282;DHT22;39167;52.794;6.892;2022-12-07T01:12:43;3.30;99.90
53282;DHT22;39167;52.794;6.892;2022-12-07T01:15:09;3.20;99.90
53282;DHT22;39167;52.794;6.892;2022-12-07T01:17:34;3.20;99.90
53282;DHT22;39167;52.794;6.892;2022-12-07T01:20:01;3.40;99.90
53282;DHT22;39167;52.794;6.892;2022-12-07T01:22:27;3.20;99.90
53282;DHT22;39167;52.794;6.892;2022-12-07T01:24:52;3.20;99.90
53282;DHT22;39167;52.794;6.892;2022-12-07T01:27:18;3.20;99.90
53282;DHT22;39167;52.794;6.892;2022-12-07T01:29:44;3.60;99.90
53282;DHT22;39167;52.794;6.892;2022-12-07T01:32:10;3.20;99.90
53282;DHT22;39167;52.794;6.892;2022-12-07T01:34:35;3.10;99.90
53282;DHT22;39167;52.794;6.892;2022-12-07T01:37:01;3.10;99.90
53282;DHT22;39167;52.794;6.892;2022-12-07T01:39:27;3.10;99.90
53282;DHT22;39167;52.794;6.892;2022-12-07T01:41:53;3.10;99.90
53282;DHT22;39167;52.794;6.892;2022-12-07T01:46:58;3.10;99.90
53282;DHT22;39167;52.794;6.892;2022-12-07T01:49:45;3.10;99.90
53282;DHT22;39167;52.794;6.892;2022-12-07T01:52:25;3.50;99.90
53282;DHT22;39167;52.794;6.892;2022-12-07T01:54:54;3.00;99.90
53282;DHT22;39167;52.794;6.892;2022-12-07T01:57:22;3.00;99.90
53282;DHT22;39167;52.794;6.892;2022-12-07T01:59:49;3.20;99.90
53282;DHT22;39167;52.794;6.892;2022-12-07T02:02:31;3.00;99.90
53282;DHT22;39167;52.794;6.892;2022-12-07T02:05:00;3.00;99.90
53282;DHT22;39167;52.794;6.892;2022-12-07T02:07:28;3.60;99.90
53282;DHT22;39167;52.794;6.892;2022-12-07T02:09:54;2.90;99.90
53282;DHT22;39167;52.794;6.892;2022-12-07T02:12:20;2.90;99.90
53282;DHT22;39167;52.794;6.892;2022-12-07T02:14:47;3.50;99.90
53282;DHT22;39167;52.794;6.892;2022-12-07T02:17:32;2.90;99.90
53282;DHT22;39167;52.794;6.892;2022-12-07T02:30:35;2.90;99.90
53282;DHT22;39167;52.794;6.892;2022-12-07T02:33:08;2.90;99.90
53282;DHT22;39167;52.794;6.892;2022-12-07T02:38:26;3.00;99.90
53282;DHT22;39167;52.794;6.892;2022-12-07T02:41:02;3.00;99.90
53282;DHT22;39167;52.794;6.892;2022-12-07T02:43:34;3.00;99.90
53282;DHT22;39167;52.794;6.892;2022-12-07T02:46:09;3.00;99.90
53282;DHT22;39167;52.794;6.892;2022-12-07T02:48:38;3.00;99.90
53282;DHT22;39167;52.794;6.892;2022-12-07T02:51:04;3.00;99.90
53282;DHT22;39167;52.794;6.892;2022-12-07T02:59:39;3.00;99.90
53282;DHT22;39167;52.794;6.892;2022-12-07T03:02:39;2.90;99.90
53282;DHT22;39167;52.794;6.892;2022-12-07T03:10:58;3.60;99.90
53282;DHT22;39167;52.794;6.892;2022-12-07T03:13:30;2.90;99.90
53282;DHT22;39167;52.794;6.892;2022-12-07T03:16:22;2.90;99.90
53282;DHT22;39167;52.794;6.892;2022-12-07T03:18:53;2.90;99.90
53282;DHT22;39167;52.794;6.892;2022-12-07T03:21:25;2.90;99.90
53282;DHT22;39167;52.794;6.892;2022-12-07T03:23:55;2.90;99.90
53282;DHT22;39167;52.794;6.892;2022-12-07T03:29:09;3.00;99.90
53282;DHT22;39167;52.794;6.892;2022-12-07T03:31:41;3.00;99.90
53282;DHT22;39167;52.794;6.892;2022-12-07T03:34:21;3.00;99.90
53282;DHT22;39167;52.794;6.892;2022-12-07T03:36:52;2.80;99.90
53282;DHT22;39167;52.794;6.892;2022-12-07T03:39:30;2.80;99.90
53282;DHT22;39167;52.794;6.892;2022-12-07T03:41:59;2.80;99.90
53282;DHT22;39167;52.794;6.892;2022-12-07T03:44:26;2.80;99.90
53282;DHT22;39167;52.794;6.892;2022-12-07T03:47:12;2.80;99.90
53282;DHT22;39167;52.794;6.892;2022-12-07T03:49:55;2.90;99.90
53282;DHT22;39167;52.794;6.892;2022-12-07T03:52:36;2.90;99.90
53282;DHT22;39167;52.794;6.892;2022-12-07T03:57:43;2.90;99.90
53282;DHT22;39167;52.794;6.892;2022-12-07T04:00:11;2.90;99.90
53282;DHT22;39167;52.794;6.892;2022-12-07T04:02:37;2.90;99.90
53282;DHT22;39167;52.794;6.892;2022-12-07T04:05:04;3.20;99.90
53282;DHT22;39167;52.794;6.892;2022-12-07T04:07:30;2.80;99.90
53282;DHT22;39167;52.794;6.892;2022-12-07T04:09:55;3.00;99.90
53282;DHT22;39167;52.794;6.892;2022-12-07T04:12:22;2.80;99.90
53282;DHT22;39167;52.794;6.892;2022-12-07T04:14:48;2.80;99.90
53282;DHT22;39167;52.794;6.892;2022-12-07T04:17:14;2.90;99.90
53282;DHT22;39167;52.794;6.892;2022-12-07T04:19:39;2.80;99.90
53282;DHT22;39167;52.794;6.892;2022-12-07T04:22:06;3.20;99.90
53282;DHT22;39167;52.794;6.892;2022-12-07T04:24:32;2.80;99.90
53282;DHT22;39167;52.794;6.892;2022-12-07T04:26:58;3.10;99.90
53282;DHT22;39167;52.794;6.892;2022-12-07T04:29:24;2.80;99.90
53282;DHT22;39167;52.794;6.892;2022-12-07T04:31:49;2.70;99.90
53282;DHT22;39167;52.794;6.892;2022-12-07T04:34:16;2.70;99.90
53282;DHT22;39167;52.794;6.892;2022-12-07T04:36:42;2.70;99.90
53282;DHT22;39167;52.794;6.892;2022-12-07T04:39:17;2.70;99.90
53282;DHT22;39167;52.794;6.892;2022-12-07T04:41:43;2.60;99.90
53282;DHT22;39167;52.794;6.892;2022-12-07T04:44:08;2.60;99.90
53282;DHT22;39167;52.794;6.892;2022-12-07T04:46:34;2.60;99.90
53282;DHT22;39167;52.794;6.892;2022-12-07T04:49:00;2.90;99.90
53282;DHT22;39167;52.794;6.892;2022-12-07T04:51:27;2.60;99.90
53282;DHT22;39167;52.794;6.892;2022-12-07T04:53:54;2.50;99.90
53282;DHT22;39167;52.794;6.892;2022-12-07T04:56:20;2.50;99.90
53282;DHT22;39167;52.794;6.892;2022-12-07T04:58:47;2.50;99.90
53282;DHT22;39167;52.794;6.892;2022-12-07T05:01:14;2.40;99.90
53282;DHT22;39167;52.794;6.892;2022-12-07T05:03:39;3.00;99.90
53282;DHT22;39167;52.794;6.892;2022-12-07T05:06:06;2.40;99.90
53282;DHT22;39167;52.794;6.892;2022-12-07T05:08:33;2.30;99.90
53282;DHT22;39167;52.794;6.892;2022-12-07T05:11:00;2.30;99.90
53282;DHT22;39167;52.794;6.892;2022-12-07T05:13:26;2.30;99.90
53282;DHT22;39167;52.794;6.892;2022-12-07T05:15:52;2.30;99.90
53282;DHT22;39167;52.794;6.892;2022-12-07T05:18:17;2.20;99.90
53282;DHT22;39167;52.794;6.892;2022-12-07T05:20:43;2.30;99.90
53282;DHT22;39167;52.794;6.892;2022-12-07T05:23:10;2.70;99.90
53282;DHT22;39167;52.794;6.892;2022-12-07T05:25:36;2.30;99.90
53282;DHT22;39167;52.794;6.892;2022-12-07T05:28:01;2.50;99.90
53282;DHT22;39167;52.794;6.892;2022-12-07T05:30:27;2.20;99.90
53282;DHT22;39167;52.794;6.892;2022-12-07T05:32:53;2.20;99.90
53282;DHT22;39167;52.794;6.892;2022-12-07T05:35:19;2.20;99.90
53282;DHT22;39167;52.794;6.892;2022-12-07T05:37:45;2.20;99.90
53282;DHT22;39167;52.794;6.892;2022-12-07T05:40:12;2.20;99.90
53282;DHT22;39167;52.794;6.892;2022-12-07T05:42:38;2.20;99.90
53282;DHT22;39167;52.794;6.892;2022-12-07T05:45:05;2.30;99.90
53282;DHT22;39167;52.794;6.892;2022-12-07T05:47:31;2.30;99.90
53282;DHT22;39167;52.794;6.892;2022-12-07T05:49:56;2.20;99.90
53282;DHT22;39167;52.794;6.892;2022-12-07T05:52:22;2.30;99.90
53282;DHT22;39167;52.794;6.892;2022-12-07T05:54:48;2.30;99.90
53282;DHT22;39167;52.794;6.892;2022-12-07T05:57:14;2.30;99.90
53282;DHT22;39167;52.794;6.892;2022-12-07T05:59:39;2.80;99.90
53282;DHT22;39167;52.794;6.892;2022-12-07T06:02:08;2.30;99.90
53282;DHT22;39167;52.794;6.892;2022-12-07T06:04:40;2.50;99.90
53282;DHT22;39167;52.794;6.892;2022-12-07T06:07:07;2.30;99.90
53282;DHT22;39167;52.794;6.892;2022-12-07T06:09:33;2.90;99.90
53282;DHT22;39167;52.794;6.892;2022-12-07T06:11:59;2.20;99.90
53282;DHT22;39167;52.794;6.892;2022-12-07T06:14:44;2.20;99.90
53282;DHT22;39167;52.794;6.892;2022-12-07T06:17:10;2.20;99.90
53282;DHT22;39167;52.794;6.892;2022-12-07T06:19:36;2.20;99.90
53282;DHT22;39167;52.794;6.892;2022-12-07T06:22:02;2.10;99.90
53282;DHT22;39167;52.794;6.892;2022-12-07T06:24:30;2.10;99.90
53282;DHT22;39167;52.794;6.892;2022-12-07T06:26:56;2.80;99.90
53282;DHT22;39167;52.794;6.892;2022-12-07T06:29:22;2.20;99.90
53282;DHT22;39167;52.794;6.892;2022-12-07T06:31:48;3.10;99.90
53282;DHT22;39167;52.794;6.892;2022-12-07T06:34:17;2.20;99.90
53282;DHT22;39167;52.794;6.892;2022-12-07T06:36:43;2.20;99.90
53282;DHT22;39167;52.794;6.892;2022-12-07T06:39:10;2.10;99.90
53282;DHT22;39167;52.794;6.892;2022-12-07T06:41:37;2.10;99.90
53282;DHT22;39167;52.794;6.892;2022-12-07T06:44:07;2.10;99.90
53282;DHT22;39167;52.794;6.892;2022-12-07T06:46:33;2.10;99.90
53282;DHT22;39167;52.794;6.892;2022-12-07T06:49:01;2.10;99.90
53282;DHT22;39167;52.794;6.892;2022-12-07T06:51:26;2.10;99.90
53282;DHT22;39167;52.794;6.892;2022-12-07T06:53:52;2.10;99.90
53282;DHT22;39167;52.794;6.892;2022-12-07T06:56:18;2.10;99.90
53282;DHT22;39167;52.794;6.892;2022-12-07T06:58:43;2.00;99.90
53282;DHT22;39167;52.794;6.892;2022-12-07T07:01:10;2.10;99.90
53282;DHT22;39167;52.794;6.892;2022-12-07T07:03:37;2.00;99.90
53282;DHT22;39167;52.794;6.892;2022-12-07T07:06:03;2.00;99.90
53282;DHT22;39167;52.794;6.892;2022-12-07T07:08:29;2.00;99.90
53282;DHT22;39167;52.794;6.892;2022-12-07T07:10:55;2.40;99.90
53282;DHT22;39167;52.794;6.892;2022-12-07T07:13:20;2.00;99.90
53282;DHT22;39167;52.794;6.892;2022-12-07T07:15:46;2.00;99.90
53282;DHT22;39167;52.794;6.892;2022-12-07T07:18:12;2.00;99.90
53282;DHT22;39167;52.794;6.892;2022-12-07T07:20:38;2.00;99.90
53282;DHT22;39167;52.794;6.892;2022-12-07T07:23:04;2.00;99.90
53282;DHT22;39167;52.794;6.892;2022-12-07T07:25:31;2.00;99.90
53282;DHT22;39167;52.794;6.892;2022-12-07T07:27:56;2.00;99.90
53282;DHT22;39167;52.794;6.892;2022-12-07T07:30:22;2.00;99.90
53282;DHT22;39167;52.794;6.892;2022-12-07T07:32:48;2.00;99.90
53282;DHT22;39167;52.794;6.892;2022-12-07T07:35:14;2.70;99.90
53282;DHT22;39167;52.794;6.892;2022-12-07T07:37:40;2.00;99.90
53282;DHT22;39167;52.794;6.892;2022-12-07T07:40:07;2.40;99.90
53282;DHT22;39167;52.794;6.892;2022-12-07T07:42:33;2.10;99.90
53282;DHT22;39167;52.794;6.892;2022-12-07T07:44:58;2.10;99.90
53282;DHT22;39167;52.794;6.892;2022-12-07T07:47:24;2.40;99.90
53282;DHT22;39167;52.794;6.892;2022-12-07T07:49:50;2.90;99.90
53282;DHT22;39167;52.794;6.892;2022-12-07T07:52:18;2.10;99.90
53282;DHT22;39167;52.794;6.892;2022-12-07T07:54:44;2.10;99.90
53282;DHT22;39167;52.794;6.892;2022-12-07T07:57:10;2.10;99.90
53282;DHT22;39167;52.794;6.892;2022-12-07T07:59:35;2.90;99.90
53282;DHT22;39167;52.794;6.892;2022-12-07T08:02:01;2.10;99.90
53282;DHT22;39167;52.794;6.892;2022-12-07T08:04:27;2.10;99.90
53282;DHT22;39167;52.794;6.892;2022-12-07T08:06:53;2.10;99.90
53282;DHT22;39167;52.794;6.892;2022-12-07T08:09:18;2.10;99.90
53282;DHT22;39167;52.794;6.892;2022-12-07T08:11:44;2.20;99.90
53282;DHT22;39167;52.794;6.892;2022-12-07T08:14:10;2.10;99.90
53282;DHT22;39167;52.794;6.892;2022-12-07T08:16:37;2.20;99.90
53282;DHT22;39167;52.794;6.892;2022-12-07T08:19:05;2.10;99.90
53282;DHT22;39167;52.794;6.892;2022-12-07T08:21:30;2.10;99.90
53282;DHT22;39167;52.794;6.892;2022-12-07T08:23:57;3.40;99.90
53282;DHT22;39167;52.794;6.892;2022-12-07T08:26:23;2.60;99.90
53282;DHT22;39167;52.794;6.892;2022-12-07T08:28:48;2.10;99.90
53282;DHT22;39167;52.794;6.892;2022-12-07T08:31:17;2.10;99.90
53282;DHT22;39167;52.794;6.892;2022-12-07T08:33:46;2.80;99.90
53282;DHT22;39167;52.794;6.892;2022-12-07T08:36:12;2.20;99.90
53282;DHT22;39167;52.794;6.892;2022-12-07T08:38:39;2.60;99.90
53282;DHT22;39167;52.794;6.892;2022-12-07T08:41:06;2.20;99.90
53282;DHT22;39167;52.794;6.892;2022-12-07T08:43:32;2.20;99.90
53282;DHT22;39167;52.794;6.892;2022-12-07T08:48:32;2.20;99.90
53282;DHT22;39167;52.794;6.892;2022-12-07T08:50:58;2.90;99.90
53282;DHT22;39167;52.794;6.892;2022-12-07T08:53:24;2.30;99.90
53282;DHT22;39167;52.794;6.892;2022-12-07T08:55:50;2.30;99.90
53282;DHT22;39167;52.794;6.892;2022-12-07T08:58:16;2.30;99.90
53282;DHT22;39167;52.794;6.892;2022-12-07T09:00:41;2.30;99.90
53282;DHT22;39167;52.794;6.892;2022-12-07T09:03:07;2.30;99.90
53282;DHT22;39167;52.794;6.892;2022-12-07T09:05:33;2.70;99.90
53282;DHT22;39167;52.794;6.892;2022-12-07T09:08:01;2.40;99.90
53282;DHT22;39167;52.794;6.892;2022-12-07T09:10:30;2.40;99.90
53282;DHT22;39167;52.794;6.892;2022-12-07T09:12:56;2.40;99.90
53282;DHT22;39167;52.794;6.892;2022-12-07T09:15:27;1.90;99.90
53282;DHT22;39167;52.794;6.892;2022-12-07T09:17:53;2.50;99.90
53282;DHT22;39167;52.794;6.892;2022-12-07T09:20:19;2.50;99.90
53282;DHT22;39167;52.794;6.892;2022-12-07T09:22:45;3.60;99.90
53282;DHT22;39167;52.794;6.892;2022-12-07T09:25:11;3.70;99.90
53282;DHT22;39167;52.794;6.892;2022-12-07T09:27:36;3.50;99.90
53282;DHT22;39167;52.794;6.892;2022-12-07T09:30:03;2.70;99.90
53282;DHT22;39167;52.794;6.892;2022-12-07T09:32:29;2.70;99.90
53282;DHT22;39167;52.794;6.892;2022-12-07T09:34:55;3.60;99.90
53282;DHT22;39167;52.794;6.892;2022-12-07T09:37:20;2.70;99.90
53282;DHT22;39167;52.794;6.892;2022-12-07T09:39:49;2.70;99.90
53282;DHT22;39167;52.794;6.892;2022-12-07T09:42:41;2.70;99.90
53282;DHT22;39167;52.794;6.892;2022-12-07T09:45:23;2.70;99.90
53282;DHT22;39167;52.794;6.892;2022-12-07T09:47:52;2.70;99.90
53282;DHT22;39167;52.794;6.892;2022-12-07T09:50:25;2.80;99.90
53282;DHT22;39167;52.794;6.892;2022-12-07T09:52:52;3.20;99.90
53282;DHT22;39167;52.794;6.892;2022-12-07T09:55:28;2.90;99.90
53282;DHT22;39167;52.794;6.892;2022-12-07T09:57:54;3.40;99.90
53282;DHT22;39167;52.794;6.892;2022-12-07T10:00:22;3.10;99.90
53282;DHT22;39167;52.794;6.892;2022-12-07T10:05:46;3.20;99.90
53282;DHT22;39167;52.794;6.892;2022-12-07T10:08:13;3.40;99.90
53282;DHT22;39167;52.794;6.892;2022-12-07T10:10:41;3.30;99.90
53282;DHT22;39167;52.794;6.892;2022-12-07T10:13:10;3.30;99.90
53282;DHT22;39167;52.794;6.892;2022-12-07T10:18:49;3.40;99.90
53282;DHT22;39167;52.794;6.892;2022-12-07T10:24:08;4.20;99.90
53282;DHT22;39167;52.794;6.892;2022-12-07T10:31:41;3.50;99.90
53282;DHT22;39167;52.794;6.892;2022-12-07T10:34:23;3.50;99.90
53282;DHT22;39167;52.794;6.892;2022-12-07T10:36:50;3.60;99.90
53282;DHT22;39167;52.794;6.892;2022-12-07T10:39:23;3.70;99.90
53282;DHT22;39167;52.794;6.892;2022-12-07T10:42:00;3.60;99.90
53282;DHT22;39167;52.794;6.892;2022-12-07T10:44:31;3.60;99.90
53282;DHT22;39167;52.794;6.892;2022-12-07T10:49:53;3.60;99.90
53282;DHT22;39167;52.794;6.892;2022-12-07T10:55:16;3.70;99.90
53282;DHT22;39167;52.794;6.892;2022-12-07T11:00:49;3.70;99.90
53282;DHT22;39167;52.794;6.892;2022-12-07T11:03:36;3.70;99.90
53282;DHT22;39167;52.794;6.892;2022-12-07T11:12:06;3.70;99.90
53282;DHT22;39167;52.794;6.892;2022-12-07T11:14:40;3.80;99.90
53282;DHT22;39167;52.794;6.892;2022-12-07T11:17:42;3.70;99.90
53282;DHT22;39167;52.794;6.892;2022-12-07T11:20:22;3.80;99.90
53282;DHT22;39167;52.794;6.892;2022-12-07T11:23:21;3.80;99.90
53282;DHT22;39167;52.794;6.892;2022-12-07T11:26:01;3.80;99.90
53282;DHT22;39167;52.794;6.892;2022-12-07T11:34:53;3.90;99.90
53282;DHT22;39167;52.794;6.892;2022-12-07T11:36:54;4.30;99.90
53282;DHT22;39167;52.794;6.892;2022-12-07T11:41:56;3.90;99.90
53282;DHT22;39167;52.794;6.892;2022-12-07T11:47:30;3.90;99.90
53282;DHT22;39167;52.794;6.892;2022-12-07T11:52:47;4.00;99.90
53282;DHT22;39167;52.794;6.892;2022-12-07T11:55:21;4.40;99.90
53282;DHT22;39167;52.794;6.892;2022-12-07T11:57:53;4.00;99.90
53282;DHT22;39167;52.794;6.892;2022-12-07T12:00:20;4.10;99.90
53282;DHT22;39167;52.794;6.892;2022-12-07T12:02:54;4.10;99.90
53282;DHT22;39167;52.794;6.892;2022-12-07T12:05:24;4.10;99.90
53282;DHT22;39167;52.794;6.892;2022-12-07T12:22:44;4.30;99.90
53282;DHT22;39167;52.794;6.892;2022-12-07T12:27:49;4.40;99.90
53282;DHT22;39167;52.794;6.892;2022-12-07T12:30:31;4.50;99.90
53282;DHT22;39167;52.794;6.892;2022-12-07T12:35:42;4.60;99.90
53282;DHT22;39167;52.794;6.892;2022-12-07T12:38:31;4.80;99.90
53282;DHT22;39167;52.794;6.892;2022-12-07T12:40:59;4.90;99.90
53282;DHT22;39167;52.794;6.892;2022-12-07T12:43:47;4.60;99.90
53282;DHT22;39167;52.794;6.892;2022-12-07T12:49:38;4.60;99.90
53282;DHT22;39167;52.794;6.892;2022-12-07T12:54:39;4.70;99.90
53282;DHT22;39167;52.794;6.892;2022-12-07T12:57:27;4.70;99.90
53282;DHT22;39167;52.794;6.892;2022-12-07T13:02:31;4.70;99.90
53282;DHT22;39167;52.794;6.892;2022-12-07T13:10:40;5.40;99.90
53282;DHT22;39167;52.794;6.892;2022-12-07T13:15:49;4.90;99.90
53282;DHT22;39167;52.794;6.892;2022-12-07T13:28:48;4.80;99.90
53282;DHT22;39167;52.794;6.892;2022-12-07T13:31:34;4.70;99.90
53282;DHT22;39167;52.794;6.892;2022-12-07T13:34:01;4.70;99.90
53282;DHT22;39167;52.794;6.892;2022-12-07T13:36:39;4.70;99.90
53282;DHT22;39167;52.794;6.892;2022-12-07T13:39:18;4.70;99.90
53282;DHT22;39167;52.794;6.892;2022-12-07T13:41:48;4.70;99.90
53282;DHT22;39167;52.794;6.892;2022-12-07T13:44:16;5.00;99.90
53282;DHT22;39167;52.794;6.892;2022-12-07T13:46:59;4.70;99.90
53282;DHT22;39167;52.794;6.892;2022-12-07T13:49:28;4.70;99.90
53282;DHT22;39167;52.794;6.892;2022-12-07T13:52:06;4.70;99.90
53282;DHT22;39167;52.794;6.892;2022-12-07T13:54:32;5.30;99.90
53282;DHT22;39167;52.794;6.892;2022-12-07T13:56:58;4.70;99.90
53282;DHT22;39167;52.794;6.892;2022-12-07T13:59:25;4.70;99.90
53282;DHT22;39167;52.794;6.892;2022-12-07T14:01:52;4.70;99.90
53282;DHT22;39167;52.794;6.892;2022-12-07T14:04:35;4.60;99.90
53282;DHT22;39167;52.794;6.892;2022-12-07T14:07:25;4.50;99.90
53282;DHT22;39167;52.794;6.892;2022-12-07T14:10:33;4.50;99.90
53282;DHT22;39167;52.794;6.892;2022-12-07T14:13:01;4.40;99.90
53282;DHT22;39167;52.794;6.892;2022-12-07T14:15:29;4.60;99.90
53282;DHT22;39167;52.794;6.892;2022-12-07T14:17:56;4.40;99.90
53282;DHT22;39167;52.794;6.892;2022-12-07T14:22:56;3.90;99.90
53282;DHT22;39167;52.794;6.892;2022-12-07T14:25:26;4.40;99.90
53282;DHT22;39167;52.794;6.892;2022-12-07T14:30:25;4.30;99.90
53282;DHT22;39167;52.794;6.892;2022-12-07T14:32:58;4.30;99.90
53282;DHT22;39167;52.794;6.892;2022-12-07T14:35:25;4.30;99.90
53282;DHT22;39167;52.794;6.892;2022-12-07T14:37:51;4.30;99.90
53282;DHT22;39167;52.794;6.892;2022-12-07T14:40:22;4.20;99.90
53282;DHT22;39167;52.794;6.892;2022-12-07T14:42:51;4.50;99.90
53282;DHT22;39167;52.794;6.892;2022-12-07T14:45:20;4.20;99.90
53282;DHT22;39167;52.794;6.892;2022-12-07T14:47:46;4.20;99.90
53282;DHT22;39167;52.794;6.892;2022-12-07T14:50:14;4.30;99.90
53282;DHT22;39167;52.794;6.892;2022-12-07T14:52:42;4.20;99.90
53282;DHT22;39167;52.794;6.892;2022-12-07T14:55:22;4.20;99.90
53282;DHT22;39167;52.794;6.892;2022-12-07T14:57:48;4.20;99.90
53282;DHT22;39167;52.794;6.892;2022-12-07T15:00:15;4.10;99.90
53282;DHT22;39167;52.794;6.892;2022-12-07T15:02:43;4.10;99.90
53282;DHT22;39167;52.794;6.892;2022-12-07T15:05:09;4.10;99.90
53282;DHT22;39167;52.794;6.892;2022-12-07T15:07:35;4.10;99.90
53282;DHT22;39167;52.794;6.892;2022-12-07T15:10:00;4.10;99.90
53282;DHT22;39167;52.794;6.892;2022-12-07T15:12:26;4.00;99.90
53282;DHT22;39167;52.794;6.892;2022-12-07T15:14:52;4.00;99.90
53282;DHT22;39167;52.794;6.892;2022-12-07T15:17:18;4.00;99.90
53282;DHT22;39167;52.794;6.892;2022-12-07T15:19:43;4.00;99.90
53282;DHT22;39167;52.794;6.892;2022-12-07T15:22:09;4.10;99.90
53282;DHT22;39167;52.794;6.892;2022-12-07T15:24:36;4.70;99.90
53282;DHT22;39167;52.794;6.892;2022-12-07T15:27:02;3.90;99.90
53282;DHT22;39167;52.794;6.892;2022-12-07T15:29:28;4.00;99.90
53282;DHT22;39167;52.794;6.892;2022-12-07T15:31:54;3.90;99.90
53282;DHT22;39167;52.794;6.892;2022-12-07T15:34:20;3.90;99.90
53282;DHT22;39167;52.794;6.892;2022-12-07T15:36:46;4.00;99.90
53282;DHT22;39167;52.794;6.892;2022-12-07T15:39:12;3.90;99.90
53282;DHT22;39167;52.794;6.892;2022-12-07T15:41:38;3.90;99.90
53282;DHT22;39167;52.794;6.892;2022-12-07T15:44:04;3.90;99.90
53282;DHT22;39167;52.794;6.892;2022-12-07T15:46:47;3.90;99.90
53282;DHT22;39167;52.794;6.892;2022-12-07T15:49:16;3.90;99.90
53282;DHT22;39167;52.794;6.892;2022-12-07T15:51:43;3.80;99.90
53282;DHT22;39167;52.794;6.892;2022-12-07T15:54:20;3.80;99.90
53282;DHT22;39167;52.794;6.892;2022-12-07T15:56:46;3.80;99.90
53282;DHT22;39167;52.794;6.892;2022-12-07T15:59:12;4.30;99.90
53282;DHT22;39167;52.794;6.892;2022-12-07T16:01:38;3.80;99.90
53282;DHT22;39167;52.794;6.892;2022-12-07T16:04:04;4.10;99.90
53282;DHT22;39167;52.794;6.892;2022-12-07T16:06:29;3.80;99.90
53282;DHT22;39167;52.794;6.892;2022-12-07T16:08:55;4.30;99.90
53282;DHT22;39167;52.794;6.892;2022-12-07T16:11:21;3.80;99.90
53282;DHT22;39167;52.794;6.892;2022-12-07T16:13:47;4.20;99.90
53282;DHT22;39167;52.794;6.892;2022-12-07T16:16:15;3.80;99.90
53282;DHT22;39167;52.794;6.892;2022-12-07T16:18:43;4.10;99.90
53282;DHT22;39167;52.794;6.892;2022-12-07T16:21:09;4.00;99.90
53282;DHT22;39167;52.794;6.892;2022-12-07T16:23:35;3.70;99.90
53282;DHT22;39167;52.794;6.892;2022-12-07T16:26:08;3.70;99.90
53282;DHT22;39167;52.794;6.892;2022-12-07T16:28:34;4.90;99.90
53282;DHT22;39167;52.794;6.892;2022-12-07T16:31:12;3.70;99.90
53282;DHT22;39167;52.794;6.892;2022-12-07T16:33:39;3.70;99.90
53282;DHT22;39167;52.794;6.892;2022-12-07T16:36:06;3.70;99.90
53282;DHT22;39167;52.794;6.892;2022-12-07T16:38:32;3.70;99.90
53282;DHT22;39167;52.794;6.892;2022-12-07T16:40:58;3.80;99.90
53282;DHT22;39167;52.794;6.892;2022-12-07T16:43:24;3.60;99.90
53282;DHT22;39167;52.794;6.892;2022-12-07T16:45:50;4.10;99.90
53282;DHT22;39167;52.794;6.892;2022-12-07T16:48:17;3.60;99.90
53282;DHT22;39167;52.794;6.892;2022-12-07T16:50:43;3.60;99.90
53282;DHT22;39167;52.794;6.892;2022-12-07T16:53:10;3.60;99.90
53282;DHT22;39167;52.794;6.892;2022-12-07T16:55:44;3.60;99.90
53282;DHT22;39167;52.794;6.892;2022-12-07T16:58:11;3.50;99.90
53282;DHT22;39167;52.794;6.892;2022-12-07T17:00:38;3.50;99.90
53282;DHT22;39167;52.794;6.892;2022-12-07T17:03:04;3.50;99.90
53282;DHT22;39167;52.794;6.892;2022-12-07T17:05:30;3.50;99.90
53282;DHT22;39167;52.794;6.892;2022-12-07T17:07:56;3.40;99.90
53282;DHT22;39167;52.794;6.892;2022-12-07T17:10:23;3.60;99.90
53282;DHT22;39167;52.794;6.892;2022-12-07T17:12:49;3.40;99.90
53282;DHT22;39167;52.794;6.892;2022-12-07T17:15:15;3.70;99.90
53282;DHT22;39167;52.794;6.892;2022-12-07T17:17:54;3.40;99.90
53282;DHT22;39167;52.794;6.892;2022-12-07T17:20:23;4.00;99.90
53282;DHT22;39167;52.794;6.892;2022-12-07T17:22:49;3.40;99.90
53282;DHT22;39167;52.794;6.892;2022-12-07T17:25:15;3.40;99.90
53282;DHT22;39167;52.794;6.892;2022-12-07T17:27:42;3.30;99.90
53282;DHT22;39167;52.794;6.892;2022-12-07T17:30:09;3.40;99.90
53282;DHT22;39167;52.794;6.892;2022-12-07T17:32:35;3.30;99.90
53282;DHT22;39167;52.794;6.892;2022-12-07T17:35:00;3.30;99.90
53282;DHT22;39167;52.794;6.892;2022-12-07T17:37:26;3.90;99.90
53282;DHT22;39167;52.794;6.892;2022-12-07T17:39:53;3.30;99.90
53282;DHT22;39167;52.794;6.892;2022-12-07T17:42:24;3.30;99.90
53282;DHT22;39167;52.794;6.892;2022-12-07T17:45:06;3.30;99.90
53282;DHT22;39167;52.794;6.892;2022-12-07T17:47:32;3.30;99.90
53282;DHT22;39167;52.794;6.892;2022-12-07T17:49:58;3.30;99.90
53282;DHT22;39167;52.794;6.892;2022-12-07T17:52:23;3.20;99.90
53282;DHT22;39167;52.794;6.892;2022-12-07T17:55:07;3.70;99.90
53282;DHT22;39167;52.794;6.892;2022-12-07T17:57:33;3.90;99.90
53282;DHT22;39167;52.794;6.892;2022-12-07T17:59:59;3.20;99.90
53282;DHT22;39167;52.794;6.892;2022-12-07T18:02:25;3.20;99.90
53282;DHT22;39167;52.794;6.892;2022-12-07T18:04:51;3.20;99.90
53282;DHT22;39167;52.794;6.892;2022-12-07T18:07:18;4.20;99.90
53282;DHT22;39167;52.794;6.892;2022-12-07T18:09:43;3.20;99.90